Home   Weather   USA   Austin   Past weeks
Flag for USA

Past Weather in Austin, Texas, USA — September 2017

Currently: 73 °F. Sunny. (Weather station: Camp Mabry / Austin City, USA). See more current weather

September 2017 Weather in Austin — Graph

°F

High & Low Weather Summary for September 2017

 TemperatureHumidityPressure
High95 °F (Sep 20, 3:51 pm)100% (Sep 26, 7:58 pm)30.16 "Hg (Sep 26, 7:58 pm)
Low59 °F (Sep 7, 6:51 am)22% (Sep 12, 5:51 pm)29.73 "Hg (Sep 13, 5:51 pm)
Average79 °F68%29.95 "Hg
* Reported Sep 1 12:51 am — Sep 30 11:51 pm, Austin. Weather by CustomWeather, © 2023

Note: Actual official high and low records may vary slightly from our data, if they occured in-between our weather recording intervals... More about our weather records

Austin Weather History for September 1, 2017

Scroll right to see more
 ConditionsComfort  
Time TempWeatherWind HumidityBarometerVisibility
12:51 am
Fri, Sep 1
76 °FClear.No wind67%29.96 "Hg10 mi
1:51 am74 °FClear.No wind71%29.97 "Hg10 mi
2:51 am71 °FClear.No wind81%29.96 "Hg10 mi
3:51 am71 °FOvercast.No wind78%29.96 "Hg10 mi
4:51 am71 °FPassing clouds.No wind78%29.96 "Hg10 mi
5:51 am71 °FClear.No wind76%29.97 "Hg10 mi
6:51 am71 °FClear.No wind81%29.99 "Hg10 mi
7:51 am72 °FSunny.No wind78%30.01 "Hg10 mi
8:51 am75 °FSunny.5 mph71%30.02 "Hg10 mi
9:51 am81 °FSunny.No wind58%30.03 "Hg10 mi
10:51 am84 °FSunny.No wind51%30.03 "Hg10 mi
11:51 am88 °FSunny.No wind43%30.02 "Hg10 mi
12:51 pm89 °FSunny.No wind39%30.00 "Hg10 mi
1:51 pm93 °FScattered clouds.6 mph36%29.99 "Hg10 mi
2:51 pm92 °FPartly sunny.5 mph36%29.97 "Hg10 mi
3:51 pm93 °FPassing clouds.3 mph33%29.95 "Hg10 mi
4:51 pm92 °FSunny.No wind36%29.94 "Hg10 mi
5:51 pm93 °FSunny.7 mph36%29.94 "Hg10 mi
6:51 pm89 °FSunny.6 mph39%29.94 "Hg10 mi
7:51 pm86 °FSunny.5 mph43%29.95 "Hg10 mi
8:51 pm84 °FClear.No wind49%29.95 "Hg10 mi
9:51 pm81 °FClear.3 mph56%29.97 "Hg10 mi
10:51 pm80 °FClear.No wind58%29.99 "Hg10 mi
11:51 pm79 °FClear.No wind60%29.99 "Hg10 mi
Weather by CustomWeather, © 2023

See weather overview